<?xml version="1.0" encoding="UTF-8" standalone="no" ?>
<gpx xmlns="http://www.topografix.com/GPX/1/1" xmlns:xsi="http://www.w3.org/2001/XMLSchema-instance" xsi:schemaLocation="http://www.topografix.com/GPX/1/1 http://www.topografix.com/GPX/1/1/gpx.xsd" version="1.1" creator="VisuGPX - https://www.visugpx.com">
  <metadata>
    <name>LaMontagne_BourgCoteauxRocheBalue_5-10km</name>
    <desc><![CDATA[gnerando idor:7892356_7892816-7892347_7893056]]></desc>
  </metadata>
  <trk>
    <name><![CDATA[LaMontagne_AutourDuBourg_4.8km-7892816]]></name>
    <extensions>
      <line xmlns="http://www.topografix.com/GPX/gpx_style/0/2">
        <color>00FF00</color>
        <width>4</width>
      </line>
    </extensions>
    <trkseg>
      <trkpt lat="47.1836" lon="-1.67629">
        <ele>31</ele>
        <time>2023-11-04T12:25:20Z</time>
      </trkpt>
      <trkpt lat="47.18375" lon="-1.67612">
        <ele>31</ele>
        <time>2023-11-04T12:25:45Z</time>
      </trkpt>
      <trkpt lat="47.18379" lon="-1.67633">
        <ele>31</ele>
        <time>2023-11-04T12:26:05Z</time>
      </trkpt>
      <trkpt lat="47.18399" lon="-1.6769">
        <ele>31</ele>
        <time>2023-11-04T12:27:03Z</time>
      </trkpt>
      <trkpt lat="47.18413" lon="-1.67733">
        <ele>31</ele>
        <time>2023-11-04T12:27:46Z</time>
      </trkpt>
      <trkpt lat="47.18414" lon="-1.6776">
        <ele>31</ele>
        <time>2023-11-04T12:28:11Z</time>
      </trkpt>
      <trkpt lat="47.18421" lon="-1.67788">
        <ele>31</ele>
        <time>2023-11-04T12:28:38Z</time>
      </trkpt>
      <trkpt lat="47.18432" lon="-1.6781">
        <ele>32</ele>
        <time>2023-11-04T12:29:03Z</time>
      </trkpt>
      <trkpt lat="47.18462" lon="-1.67791">
        <ele>32</ele>
        <time>2023-11-04T12:29:46Z</time>
      </trkpt>
      <trkpt lat="47.18473" lon="-1.67863">
        <ele>32</ele>
        <time>2023-11-04T12:30:53Z</time>
      </trkpt>
      <trkpt lat="47.18515" lon="-1.67847">
        <ele>32</ele>
        <time>2023-11-04T12:31:51Z</time>
      </trkpt>
      <trkpt lat="47.18424" lon="-1.6788">
        <ele>32</ele>
        <time>2023-11-04T12:33:56Z</time>
      </trkpt>
      <trkpt lat="47.18404" lon="-1.67917">
        <ele>33</ele>
        <time>2023-11-04T12:34:39Z</time>
      </trkpt>
      <trkpt lat="47.18383" lon="-1.68078">
        <ele>32</ele>
        <time>2023-11-04T12:37:08Z</time>
      </trkpt>
      <trkpt lat="47.18377" lon="-1.68083">
        <ele>32</ele>
        <time>2023-11-04T12:37:17Z</time>
      </trkpt>
      <trkpt lat="47.18359" lon="-1.68094">
        <ele>33</ele>
        <time>2023-11-04T12:37:43Z</time>
      </trkpt>
      <trkpt lat="47.18387" lon="-1.68364">
        <ele>28</ele>
        <time>2023-11-04T12:41:51Z</time>
      </trkpt>
      <trkpt lat="47.18392" lon="-1.68412">
        <ele>28</ele>
        <time>2023-11-04T12:42:35Z</time>
      </trkpt>
      <trkpt lat="47.18371" lon="-1.68436">
        <ele>28</ele>
        <time>2023-11-04T12:43:10Z</time>
      </trkpt>
      <trkpt lat="47.18403" lon="-1.68496">
        <ele>29</ele>
        <time>2023-11-04T12:44:19Z</time>
      </trkpt>
      <trkpt lat="47.1837" lon="-1.6852">
        <ele>28</ele>
        <time>2023-11-04T12:45:09Z</time>
      </trkpt>
      <trkpt lat="47.18405" lon="-1.68492">
        <ele>29</ele>
        <time>2023-11-04T12:46:02Z</time>
      </trkpt>
      <trkpt lat="47.18419" lon="-1.68498">
        <ele>29</ele>
        <time>2023-11-04T12:46:21Z</time>
      </trkpt>
      <trkpt lat="47.18416" lon="-1.68562">
        <ele>28</ele>
        <time>2023-11-04T12:47:19Z</time>
      </trkpt>
      <trkpt lat="47.18452" lon="-1.68661">
        <ele>24</ele>
        <time>2023-11-04T12:49:01Z</time>
      </trkpt>
      <trkpt lat="47.1845" lon="-1.68657">
        <ele>24</ele>
        <time>2023-11-04T12:49:06Z</time>
      </trkpt>
      <trkpt lat="47.18451" lon="-1.68662">
        <ele>24</ele>
        <time>2023-11-04T12:49:10Z</time>
      </trkpt>
      <trkpt lat="47.18463" lon="-1.68689">
        <ele>24</ele>
        <time>2023-11-04T12:49:40Z</time>
      </trkpt>
      <trkpt lat="47.18481" lon="-1.68736">
        <ele>23</ele>
        <time>2023-11-04T12:50:29Z</time>
      </trkpt>
      <trkpt lat="47.18488" lon="-1.68773">
        <ele>23</ele>
        <time>2023-11-04T12:51:04Z</time>
      </trkpt>
      <trkpt lat="47.18503" lon="-1.68803">
        <ele>23</ele>
        <time>2023-11-04T12:51:37Z</time>
      </trkpt>
      <trkpt lat="47.18528" lon="-1.68803">
        <ele>22</ele>
        <time>2023-11-04T12:52:11Z</time>
      </trkpt>
      <trkpt lat="47.18569" lon="-1.68798">
        <ele>22</ele>
        <time>2023-11-04T12:53:06Z</time>
      </trkpt>
      <trkpt lat="47.18613" lon="-1.68794">
        <ele>22</ele>
        <time>2023-11-04T12:54:04Z</time>
      </trkpt>
      <trkpt lat="47.18649" lon="-1.68783">
        <ele>21</ele>
        <time>2023-11-04T12:54:53Z</time>
      </trkpt>
      <trkpt lat="47.18681" lon="-1.68775">
        <ele>21</ele>
        <time>2023-11-04T12:55:37Z</time>
      </trkpt>
      <trkpt lat="47.18703" lon="-1.68771">
        <ele>21</ele>
        <time>2023-11-04T12:56:06Z</time>
      </trkpt>
      <trkpt lat="47.18715" lon="-1.68806">
        <ele>20</ele>
        <time>2023-11-04T12:56:42Z</time>
      </trkpt>
      <trkpt lat="47.18725" lon="-1.68851">
        <ele>19</ele>
        <time>2023-11-04T12:57:25Z</time>
      </trkpt>
      <trkpt lat="47.18753" lon="-1.68903">
        <ele>18</ele>
        <time>2023-11-04T12:58:25Z</time>
      </trkpt>
      <trkpt lat="47.18783" lon="-1.68959">
        <ele>18</ele>
        <time>2023-11-04T12:59:30Z</time>
      </trkpt>
      <trkpt lat="47.18795" lon="-1.69">
        <ele>18</ele>
        <time>2023-11-04T13:00:10Z</time>
      </trkpt>
      <trkpt lat="47.18802" lon="-1.69041">
        <ele>18</ele>
        <time>2023-11-04T13:00:48Z</time>
      </trkpt>
      <trkpt lat="47.18847" lon="-1.69032">
        <ele>19</ele>
        <time>2023-11-04T13:01:49Z</time>
      </trkpt>
      <trkpt lat="47.18885" lon="-1.69032">
        <ele>21</ele>
        <time>2023-11-04T13:02:40Z</time>
      </trkpt>
      <trkpt lat="47.18919" lon="-1.69084">
        <ele>23</ele>
        <time>2023-11-04T13:03:45Z</time>
      </trkpt>
      <trkpt lat="47.18939" lon="-1.69118">
        <ele>24</ele>
        <time>2023-11-04T13:04:26Z</time>
      </trkpt>
      <trkpt lat="47.18984" lon="-1.69089">
        <ele>27</ele>
        <time>2023-11-04T13:05:32Z</time>
      </trkpt>
      <trkpt lat="47.19066" lon="-1.69035">
        <ele>32</ele>
        <time>2023-11-04T13:07:31Z</time>
      </trkpt>
      <trkpt lat="47.19103" lon="-1.69112">
        <ele>31</ele>
        <time>2023-11-04T13:08:57Z</time>
      </trkpt>
      <trkpt lat="47.19134" lon="-1.69189">
        <ele>30</ele>
        <time>2023-11-04T13:10:18Z</time>
      </trkpt>
      <trkpt lat="47.19165" lon="-1.69161">
        <ele>31</ele>
        <time>2023-11-04T13:11:07Z</time>
      </trkpt>
      <trkpt lat="47.19202" lon="-1.69132">
        <ele>31</ele>
        <time>2023-11-04T13:12:03Z</time>
      </trkpt>
      <trkpt lat="47.19228" lon="-1.69107">
        <ele>31</ele>
        <time>2023-11-04T13:12:44Z</time>
      </trkpt>
      <trkpt lat="47.19262" lon="-1.69075">
        <ele>31</ele>
        <time>2023-11-04T13:13:38Z</time>
      </trkpt>
      <trkpt lat="47.19303" lon="-1.6905">
        <ele>29</ele>
        <time>2023-11-04T13:14:37Z</time>
      </trkpt>
      <trkpt lat="47.19336" lon="-1.69021">
        <ele>27</ele>
        <time>2023-11-04T13:15:28Z</time>
      </trkpt>
      <trkpt lat="47.19322" lon="-1.69001">
        <ele>29</ele>
        <time>2023-11-04T13:15:54Z</time>
      </trkpt>
      <trkpt lat="47.19275" lon="-1.68904">
        <ele>30</ele>
        <time>2023-11-04T13:17:43Z</time>
      </trkpt>
      <trkpt lat="47.19237" lon="-1.6883">
        <ele>31</ele>
        <time>2023-11-04T13:19:07Z</time>
      </trkpt>
      <trkpt lat="47.19237" lon="-1.68796">
        <ele>30</ele>
        <time>2023-11-04T13:19:37Z</time>
      </trkpt>
      <trkpt lat="47.19227" lon="-1.68739">
        <ele>29</ele>
        <time>2023-11-04T13:20:31Z</time>
      </trkpt>
      <trkpt lat="47.19209" lon="-1.68719">
        <ele>30</ele>
        <time>2023-11-04T13:21:01Z</time>
      </trkpt>
      <trkpt lat="47.19175" lon="-1.68683">
        <ele>34</ele>
        <time>2023-11-04T13:21:57Z</time>
      </trkpt>
      <trkpt lat="47.19167" lon="-1.68655">
        <ele>35</ele>
        <time>2023-11-04T13:22:24Z</time>
      </trkpt>
      <trkpt lat="47.1917" lon="-1.68645">
        <ele>35</ele>
        <time>2023-11-04T13:22:34Z</time>
      </trkpt>
      <trkpt lat="47.19157" lon="-1.68594">
        <ele>35</ele>
        <time>2023-11-04T13:23:24Z</time>
      </trkpt>
      <trkpt lat="47.19142" lon="-1.68548">
        <ele>35</ele>
        <time>2023-11-04T13:24:10Z</time>
      </trkpt>
      <trkpt lat="47.1913" lon="-1.68507">
        <ele>34</ele>
        <time>2023-11-04T13:24:50Z</time>
      </trkpt>
      <trkpt lat="47.19114" lon="-1.68465">
        <ele>35</ele>
        <time>2023-11-04T13:25:34Z</time>
      </trkpt>
      <trkpt lat="47.19108" lon="-1.68451">
        <ele>35</ele>
        <time>2023-11-04T13:25:49Z</time>
      </trkpt>
      <trkpt lat="47.19096" lon="-1.68417">
        <ele>35</ele>
        <time>2023-11-04T13:26:24Z</time>
      </trkpt>
      <trkpt lat="47.19097" lon="-1.6838">
        <ele>35</ele>
        <time>2023-11-04T13:26:57Z</time>
      </trkpt>
      <trkpt lat="47.19086" lon="-1.68375">
        <ele>36</ele>
        <time>2023-11-04T13:27:13Z</time>
      </trkpt>
      <trkpt lat="47.19059" lon="-1.6839">
        <ele>37</ele>
        <time>2023-11-04T13:27:51Z</time>
      </trkpt>
      <trkpt lat="47.19035" lon="-1.68396">
        <ele>38</ele>
        <time>2023-11-04T13:28:24Z</time>
      </trkpt>
      <trkpt lat="47.1903" lon="-1.68368">
        <ele>38</ele>
        <time>2023-11-04T13:28:50Z</time>
      </trkpt>
      <trkpt lat="47.19027" lon="-1.68331">
        <ele>38</ele>
        <time>2023-11-04T13:29:24Z</time>
      </trkpt>
      <trkpt lat="47.19029" lon="-1.68303">
        <ele>38</ele>
        <time>2023-11-04T13:29:49Z</time>
      </trkpt>
      <trkpt lat="47.1904" lon="-1.68291">
        <ele>37</ele>
        <time>2023-11-04T13:30:08Z</time>
      </trkpt>
      <trkpt lat="47.19058" lon="-1.68278">
        <ele>36</ele>
        <time>2023-11-04T13:30:34Z</time>
      </trkpt>
      <trkpt lat="47.19087" lon="-1.68259">
        <ele>34</ele>
        <time>2023-11-04T13:31:17Z</time>
      </trkpt>
      <trkpt lat="47.19092" lon="-1.68277">
        <ele>34</ele>
        <time>2023-11-04T13:31:34Z</time>
      </trkpt>
      <trkpt lat="47.19104" lon="-1.68269">
        <ele>32</ele>
        <time>2023-11-04T13:31:52Z</time>
      </trkpt>
      <trkpt lat="47.19122" lon="-1.68256">
        <ele>28</ele>
        <time>2023-11-04T13:32:19Z</time>
      </trkpt>
      <trkpt lat="47.19116" lon="-1.68231">
        <ele>28</ele>
        <time>2023-11-04T13:32:43Z</time>
      </trkpt>
      <trkpt lat="47.19119" lon="-1.68184">
        <ele>26</ele>
        <time>2023-11-04T13:33:26Z</time>
      </trkpt>
      <trkpt lat="47.19115" lon="-1.6815">
        <ele>25</ele>
        <time>2023-11-04T13:33:57Z</time>
      </trkpt>
      <trkpt lat="47.19102" lon="-1.68101">
        <ele>25</ele>
        <time>2023-11-04T13:34:45Z</time>
      </trkpt>
      <trkpt lat="47.19087" lon="-1.68061">
        <ele>25</ele>
        <time>2023-11-04T13:35:26Z</time>
      </trkpt>
      <trkpt lat="47.19074" lon="-1.68039">
        <ele>24</ele>
        <time>2023-11-04T13:35:52Z</time>
      </trkpt>
      <trkpt lat="47.19042" lon="-1.68029">
        <ele>27</ele>
        <time>2023-11-04T13:36:36Z</time>
      </trkpt>
      <trkpt lat="47.19015" lon="-1.68023">
        <ele>30</ele>
        <time>2023-11-04T13:37:13Z</time>
      </trkpt>
      <trkpt lat="47.18997" lon="-1.68031">
        <ele>33</ele>
        <time>2023-11-04T13:37:38Z</time>
      </trkpt>
      <trkpt lat="47.18987" lon="-1.68009">
        <ele>32</ele>
        <time>2023-11-04T13:38:02Z</time>
      </trkpt>
      <trkpt lat="47.18983" lon="-1.6799">
        <ele>31</ele>
        <time>2023-11-04T13:38:20Z</time>
      </trkpt>
      <trkpt lat="47.18973" lon="-1.67972">
        <ele>30</ele>
        <time>2023-11-04T13:38:41Z</time>
      </trkpt>
      <trkpt lat="47.18983" lon="-1.6796">
        <ele>29</ele>
        <time>2023-11-04T13:38:58Z</time>
      </trkpt>
      <trkpt lat="47.18985" lon="-1.67941">
        <ele>27</ele>
        <time>2023-11-04T13:39:15Z</time>
      </trkpt>
      <trkpt lat="47.18975" lon="-1.67908">
        <ele>26</ele>
        <time>2023-11-04T13:39:48Z</time>
      </trkpt>
      <trkpt lat="47.18955" lon="-1.67883">
        <ele>26</ele>
        <time>2023-11-04T13:40:23Z</time>
      </trkpt>
      <trkpt lat="47.18938" lon="-1.67875">
        <ele>28</ele>
        <time>2023-11-04T13:40:47Z</time>
      </trkpt>
      <trkpt lat="47.18918" lon="-1.67891">
        <ele>32</ele>
        <time>2023-11-04T13:41:17Z</time>
      </trkpt>
      <trkpt lat="47.18918" lon="-1.67862">
        <ele>30</ele>
        <time>2023-11-04T13:41:44Z</time>
      </trkpt>
      <trkpt lat="47.18914" lon="-1.67815">
        <ele>30</ele>
        <time>2023-11-04T13:42:27Z</time>
      </trkpt>
      <trkpt lat="47.18906" lon="-1.67774">
        <ele>31</ele>
        <time>2023-11-04T13:43:05Z</time>
      </trkpt>
      <trkpt lat="47.18906" lon="-1.67745">
        <ele>32</ele>
        <time>2023-11-04T13:43:32Z</time>
      </trkpt>
      <trkpt lat="47.18898" lon="-1.67719">
        <ele>32</ele>
        <time>2023-11-04T13:43:58Z</time>
      </trkpt>
      <trkpt lat="47.18886" lon="-1.67701">
        <ele>33</ele>
        <time>2023-11-04T13:44:20Z</time>
      </trkpt>
      <trkpt lat="47.18862" lon="-1.67701">
        <ele>34</ele>
        <time>2023-11-04T13:44:52Z</time>
      </trkpt>
      <trkpt lat="47.1884" lon="-1.67708">
        <ele>36</ele>
        <time>2023-11-04T13:45:22Z</time>
      </trkpt>
      <trkpt lat="47.18815" lon="-1.67718">
        <ele>37</ele>
        <time>2023-11-04T13:45:57Z</time>
      </trkpt>
      <trkpt lat="47.18814" lon="-1.67703">
        <ele>37</ele>
        <time>2023-11-04T13:46:11Z</time>
      </trkpt>
      <trkpt lat="47.18804" lon="-1.67675">
        <ele>37</ele>
        <time>2023-11-04T13:46:39Z</time>
      </trkpt>
      <trkpt lat="47.18796" lon="-1.67652">
        <ele>37</ele>
        <time>2023-11-04T13:47:03Z</time>
      </trkpt>
      <trkpt lat="47.18772" lon="-1.67626">
        <ele>38</ele>
        <time>2023-11-04T13:47:43Z</time>
      </trkpt>
      <trkpt lat="47.18761" lon="-1.67605">
        <ele>38</ele>
        <time>2023-11-04T13:48:07Z</time>
      </trkpt>
      <trkpt lat="47.1871" lon="-1.67621">
        <ele>38</ele>
        <time>2023-11-04T13:49:16Z</time>
      </trkpt>
      <trkpt lat="47.18687" lon="-1.67614">
        <ele>38</ele>
        <time>2023-11-04T13:49:48Z</time>
      </trkpt>
      <trkpt lat="47.18663" lon="-1.67585">
        <ele>39</ele>
        <time>2023-11-04T13:50:29Z</time>
      </trkpt>
      <trkpt lat="47.18635" lon="-1.67545">
        <ele>39</ele>
        <time>2023-11-04T13:51:21Z</time>
      </trkpt>
      <trkpt lat="47.18622" lon="-1.67514">
        <ele>38</ele>
        <time>2023-11-04T13:51:54Z</time>
      </trkpt>
      <trkpt lat="47.18609" lon="-1.6748">
        <ele>39</ele>
        <time>2023-11-04T13:52:29Z</time>
      </trkpt>
      <trkpt lat="47.18592" lon="-1.6743">
        <ele>40</ele>
        <time>2023-11-04T13:53:20Z</time>
      </trkpt>
      <trkpt lat="47.18576" lon="-1.67388">
        <ele>40</ele>
        <time>2023-11-04T13:54:04Z</time>
      </trkpt>
      <trkpt lat="47.18546" lon="-1.6741">
        <ele>40</ele>
        <time>2023-11-04T13:54:49Z</time>
      </trkpt>
      <trkpt lat="47.18523" lon="-1.67401">
        <ele>39</ele>
        <time>2023-11-04T13:55:20Z</time>
      </trkpt>
      <trkpt lat="47.1851" lon="-1.67429">
        <ele>38</ele>
        <time>2023-11-04T13:55:51Z</time>
      </trkpt>
      <trkpt lat="47.18433" lon="-1.67474">
        <ele>34</ele>
        <time>2023-11-04T13:57:42Z</time>
      </trkpt>
      <trkpt lat="47.18351" lon="-1.67528">
        <ele>31</ele>
        <time>2023-11-04T13:59:42Z</time>
      </trkpt>
      <trkpt lat="47.18373" lon="-1.67599">
        <ele>31</ele>
        <time>2023-11-04T14:00:52Z</time>
      </trkpt>
      <trkpt lat="47.18349" lon="-1.67609">
        <ele>31</ele>
        <time>2023-11-04T14:01:26Z</time>
      </trkpt>
    </trkseg>
  </trk>
</gpx>